Atmautluak, Alaska
Current Conditions -  °F | °C
As of 6:53 AM on Wednesday 22 Oct 2014 (Local Time) from PABE Reporting Station
Few Clouds Few Clouds  
Wind Chill:   Ceiling: Unl
Heat Index: 16°   Visibility: 10mi
Dew Point: 15°   Wind: 12mph
Humidity: 96%   Direction: 330°NNW
Pressure: 29.69"   Gusts: NA
Location:  60.7494°N, 161.727°W
Report Text: PABE 221453Z 33010KT 10SM FEW085 M09/M09 A2969 RMK AO2 SLP057 T10891094 53022
Loading
Personal Weather Stations






























Interactive Weather Map
Tropical Storm Tracking
New forecast layout! Learn more

10-Day Weather Forecast

Advertisements
Track Severe Weather on mobile